createdAt,value
2018-08-04T00:00:11.594Z,78.42
2018-08-04T00:01:11.611Z,78.81
2018-08-04T00:02:11.636Z,79.49
2018-08-04T00:03:11.661Z,79.29
2018-08-04T00:04:11.687Z,79.19
2018-08-04T00:05:11.712Z,79.39
2018-08-04T00:06:11.738Z,79.93
2018-08-04T00:07:11.765Z,79.83
2018-08-04T00:08:11.793Z,80.22
2018-08-04T00:09:11.819Z,80.12
2018-08-04T00:10:11.841Z,80.02
2018-08-04T00:11:11.876Z,79.64
2018-08-04T00:12:11.893Z,80.02
2018-08-04T00:13:11.908Z,80.02
2018-08-04T00:14:11.933Z,80.02
2018-08-04T00:15:11.959Z,80.22
2018-08-04T00:16:11.985Z,79.83
2018-08-04T00:17:12.061Z,80.60
2018-08-04T00:18:12.036Z,80.41
2018-08-04T00:19:12.063Z,80.51
2018-08-04T00:20:12.088Z,80.69
2018-08-04T00:21:12.114Z,80.69
2018-08-04T00:22:12.141Z,80.79
2018-08-04T00:23:12.179Z,81.09
2018-08-04T00:24:12.192Z,80.69
2018-08-04T00:25:12.218Z,81.27
2018-08-04T00:26:12.232Z,81.14
2018-08-04T00:27:12.258Z,81.04
2018-08-04T00:28:12.284Z,81.09
2018-08-04T00:29:12.310Z,80.79
2018-08-04T00:30:12.336Z,81.18
2018-08-04T00:31:12.371Z,81.24
2018-08-04T00:32:12.389Z,80.66
2018-08-04T00:33:12.417Z,80.85
2018-08-04T00:34:12.439Z,81.27
2018-08-04T00:35:12.465Z,81.14
2018-08-04T00:36:12.491Z,81.62
2018-08-04T00:37:12.504Z,81.24
2018-08-04T00:38:12.530Z,81.62
2018-08-04T00:39:12.556Z,81.04
2018-08-04T00:40:12.610Z,81.04
2018-08-04T00:41:12.609Z,81.62
2018-08-04T00:42:12.634Z,81.62
2018-08-04T00:43:12.660Z,81.72
2018-08-04T00:44:12.699Z,81.62
2018-08-04T00:45:12.712Z,81.04
2018-08-04T00:46:12.743Z,81.33
2018-08-04T00:47:12.752Z,81.04
2018-08-04T00:48:12.777Z,81.24
2018-08-04T00:49:12.803Z,81.43
2018-08-04T00:50:12.829Z,81.24
2018-08-04T00:51:12.855Z,81.14
2018-08-04T00:52:12.890Z,80.94
2018-08-04T00:53:12.909Z,81.14
2018-08-04T00:54:12.934Z,80.76
2018-08-04T00:55:12.959Z,81.14
2018-08-04T00:56:12.973Z,81.04
2018-08-04T00:57:12.998Z,81.33
2018-08-04T00:58:13.024Z,81.24
2018-08-04T00:59:13.050Z,81.14
2018-08-04T01:00:13.089Z,81.14
2018-08-04T01:01:13.101Z,81.33
2018-08-04T01:02:13.128Z,81.33
2018-08-04T01:03:13.155Z,81.29
2018-08-04T01:04:13.179Z,81.24
2018-08-04T01:05:13.196Z,81.43
2018-08-04T01:06:13.220Z,81.14
2018-08-04T01:07:13.245Z,81.24
2018-08-04T01:08:13.272Z,81.48
2018-08-04T01:09:13.297Z,81.77
2018-08-04T01:10:13.324Z,81.91
2018-08-04T01:11:13.350Z,81.72
2018-08-04T01:12:13.376Z,81.68
2018-08-04T01:13:13.401Z,81.68
2018-08-04T01:14:13.416Z,81.58
2018-08-04T01:15:13.441Z,81.48
2018-08-04T01:16:13.465Z,81.96
2018-08-04T01:17:13.492Z,82.35
2018-08-04T01:18:13.520Z,82.26
2018-08-04T01:19:13.545Z,82.54
2018-08-04T01:20:13.569Z,82.26
2018-08-04T01:21:13.595Z,82.54
2018-08-04T01:22:13.622Z,82.54
2018-08-04T01:23:13.635Z,82.74
2018-08-04T01:24:13.661Z,82.93
2018-08-04T01:25:13.688Z,82.83
2018-08-04T01:26:13.713Z,82.83
2018-08-04T01:27:13.739Z,82.93
2018-08-04T01:28:13.765Z,82.45
2018-08-04T01:29:13.791Z,82.64
2018-08-04T01:30:13.817Z,82.83
2018-08-04T01:31:13.831Z,82.74
2018-08-04T01:32:13.858Z,82.45
2018-08-04T01:33:13.882Z,82.26
2018-08-04T01:34:13.913Z,82.83
2018-08-04T01:35:13.933Z,82.93
2018-08-04T01:36:13.963Z,82.54
2018-08-04T01:37:13.985Z,82.93
2018-08-04T01:38:14.013Z,83.03
2018-08-04T01:39:14.026Z,83.03
2018-08-04T01:40:14.051Z,82.26
2018-08-04T01:41:14.078Z,82.26
2018-08-04T01:42:14.104Z,82.45
2018-08-04T01:43:14.130Z,82.45
2018-08-04T01:44:14.156Z,82.21
2018-08-04T01:45:14.182Z,82.31
2018-08-04T01:46:14.207Z,82.12
2018-08-04T01:47:14.220Z,82.50
2018-08-04T01:48:14.246Z,82.98
2018-08-04T01:49:14.271Z,82.70
2018-08-04T01:50:14.299Z,82.79
2018-08-04T01:51:14.324Z,82.60
2018-08-04T01:52:14.352Z,82.50
2018-08-04T01:53:14.376Z,82.21
2018-08-04T01:54:14.391Z,82.21
2018-08-04T01:55:14.416Z,82.31
2018-08-04T01:56:14.442Z,82.60
2018-08-04T01:57:14.467Z,82.50
2018-08-04T01:58:14.493Z,82.41
2018-08-04T01:59:14.565Z,82.41
2018-08-04T02:00:14.545Z,82.21
2018-08-04T02:01:14.559Z,82.12
2018-08-04T02:02:14.586Z,82.02
2018-08-04T02:03:14.610Z,81.45
2018-08-04T02:04:14.636Z,82.02
2018-08-04T02:05:14.663Z,82.02
2018-08-04T02:06:14.689Z,82.41
2018-08-04T02:07:14.733Z,82.79
2018-08-04T02:08:14.740Z,82.50
2018-08-04T02:09:14.754Z,82.89
2018-08-04T02:10:14.780Z,82.31
2018-08-04T02:11:14.805Z,82.70
2018-08-04T02:12:14.832Z,82.41
2018-08-04T02:13:14.858Z,82.56
2018-08-04T02:14:14.883Z,83.18
2018-08-04T02:15:14.909Z,83.37
2018-08-04T02:16:14.922Z,82.98
2018-08-04T02:17:14.948Z,83.04
2018-08-04T02:18:14.987Z,83.14
2018-08-04T02:19:14.999Z,83.47
2018-08-04T02:20:15.026Z,82.85
2018-08-04T02:21:15.051Z,83.37
2018-08-04T02:22:15.069Z,83.72
2018-08-04T02:23:15.099Z,83.91
2018-08-04T02:24:15.117Z,84.00
2018-08-04T02:25:15.144Z,84.00
2018-08-04T02:26:15.169Z,84.00
2018-08-04T02:27:15.195Z,83.42
2018-08-04T02:28:15.221Z,83.52
2018-08-04T02:29:15.234Z,83.42
2018-08-04T02:30:15.286Z,83.62
2018-08-04T02:31:15.288Z,84.10
2018-08-04T02:32:15.312Z,83.81
2018-08-04T02:33:15.338Z,83.81
2018-08-04T02:34:15.367Z,84.48
2018-08-04T02:35:15.378Z,84.29
2018-08-04T02:36:15.404Z,83.81
2018-08-04T02:37:15.429Z,84.00
2018-08-04T02:38:15.459Z,84.10
2018-08-04T02:39:15.481Z,84.39
2018-08-04T02:40:15.508Z,84.39
2018-08-04T02:41:15.524Z,84.29
2018-08-04T02:42:15.548Z,84.39
2018-08-04T02:43:15.572Z,84.29
2018-08-04T02:44:15.598Z,84.29
2018-08-04T02:45:15.624Z,84.39
2018-08-04T02:46:15.653Z,84.29
2018-08-04T02:47:15.679Z,84.29
2018-08-04T02:48:15.693Z,84.44
2018-08-04T02:49:15.719Z,84.54
2018-08-04T02:50:15.743Z,84.16
2018-08-04T02:51:15.769Z,84.00
2018-08-04T02:52:15.799Z,84.16
2018-08-04T02:53:15.807Z,84.25
2018-08-04T02:54:15.833Z,84.39
2018-08-04T02:55:15.858Z,83.67
2018-08-04T02:56:15.897Z,84.06
2018-08-04T02:57:15.909Z,84.16
2018-08-04T02:58:15.936Z,84.06
2018-08-04T02:59:15.962Z,84.06
2018-08-04T03:00:15.977Z,83.86
2018-08-04T03:01:16.003Z,83.77
2018-08-04T03:02:16.041Z,83.96
2018-08-04T03:03:16.053Z,83.77
2018-08-04T03:04:16.084Z,83.96
2018-08-04T03:05:16.093Z,83.86
2018-08-04T03:06:16.118Z,83.58
2018-08-04T03:07:16.145Z,84.06
2018-08-04T03:08:16.170Z,84.34
2018-08-04T03:09:16.196Z,84.25
2018-08-04T03:10:16.222Z,84.25
2018-08-04T03:11:16.237Z,84.16
2018-08-04T03:12:16.272Z,84.25
2018-08-04T03:13:16.288Z,84.73
2018-08-04T03:14:16.314Z,84.92
2018-08-04T03:15:16.340Z,84.44
2018-08-04T03:16:16.371Z,84.92
2018-08-04T03:17:16.379Z,84.83
2018-08-04T03:18:16.405Z,84.73
2018-08-04T03:19:16.431Z,84.92
2018-08-04T03:20:16.458Z,85.02
2018-08-04T03:21:16.484Z,85.02
2018-08-04T03:22:16.498Z,85.02
2018-08-04T03:23:16.523Z,84.83
2018-08-04T03:24:16.549Z,84.73
2018-08-04T03:25:16.574Z,84.25
2018-08-04T03:26:16.601Z,84.63
2018-08-04T03:27:16.627Z,84.06
2018-08-04T03:28:16.639Z,84.16
2018-08-04T03:29:16.667Z,83.86
2018-08-04T03:30:16.705Z,84.16
2018-08-04T03:31:16.732Z,84.44
2018-08-04T03:32:16.743Z,84.34
2018-08-04T03:33:16.759Z,84.34
2018-08-04T03:34:16.783Z,84.63
2018-08-04T03:35:16.810Z,84.83
2018-08-04T03:36:16.836Z,84.78
2018-08-04T03:37:16.861Z,84.69
2018-08-04T03:38:16.885Z,84.83
2018-08-04T03:39:16.902Z,84.92
2018-08-04T03:40:16.927Z,85.50
2018-08-04T03:41:16.951Z,85.50
2018-08-04T03:42:16.977Z,85.31
2018-08-04T03:43:17.004Z,85.78
2018-08-04T03:44:17.018Z,85.98
2018-08-04T03:45:17.047Z,85.50
2018-08-04T03:46:17.071Z,85.78
2018-08-04T03:47:17.095Z,85.98
2018-08-04T03:48:17.121Z,85.84
2018-08-04T03:49:17.134Z,85.84
2018-08-04T03:50:17.160Z,85.78
2018-08-04T03:51:17.185Z,85.78
2018-08-04T03:52:17.214Z,85.94
2018-08-04T03:53:17.251Z,85.88
2018-08-04T03:54:17.264Z,85.88
2018-08-04T03:55:17.278Z,85.27
2018-08-04T03:56:17.303Z,85.27
2018-08-04T03:57:17.330Z,85.46
2018-08-04T03:58:17.358Z,85.40
2018-08-04T03:59:17.383Z,85.55
2018-08-04T04:00:17.408Z,85.40
2018-08-04T04:01:17.420Z,85.02
2018-08-04T04:02:17.447Z,85.50
2018-08-04T04:03:17.473Z,85.31
2018-08-04T04:04:17.498Z,85.36
2018-08-04T04:05:17.513Z,86.04
2018-08-04T04:06:17.538Z,85.94
2018-08-04T04:07:17.563Z,85.55
2018-08-04T04:08:17.591Z,85.78
2018-08-04T04:09:17.615Z,85.31
2018-08-04T04:10:17.641Z,85.84
2018-08-04T04:11:17.655Z,85.98
2018-08-04T04:12:17.680Z,86.04
2018-08-04T04:13:17.710Z,85.69
2018-08-04T04:14:17.732Z,85.60
2018-08-04T04:15:17.758Z,85.60
2018-08-04T04:16:17.785Z,85.60
2018-08-04T04:17:17.799Z,85.88
2018-08-04T04:18:17.825Z,85.88
2018-08-04T04:19:17.851Z,86.08
2018-08-04T04:20:17.876Z,85.69
2018-08-04T04:21:17.901Z,85.60
2018-08-04T04:22:17.928Z,85.60
2018-08-04T04:23:17.940Z,86.08
2018-08-04T04:24:17.967Z,85.88
2018-08-04T04:25:17.993Z,85.98
2018-08-04T04:26:18.019Z,85.88
2018-08-04T04:27:18.045Z,85.60
2018-08-04T04:28:18.060Z,85.40
2018-08-04T04:29:18.090Z,85.88
2018-08-04T04:30:18.113Z,85.98
2018-08-04T04:31:18.140Z,86.18
2018-08-04T04:32:18.163Z,85.78
2018-08-04T04:33:18.177Z,86.08
2018-08-04T04:34:18.202Z,85.88
2018-08-04T04:35:18.228Z,86.18
2018-08-04T04:36:18.253Z,85.98
2018-08-04T04:37:18.282Z,85.98
2018-08-04T04:38:18.306Z,85.88
2018-08-04T04:39:18.331Z,85.69
2018-08-04T04:40:18.345Z,85.69
2018-08-04T04:41:18.372Z,85.78
2018-08-04T04:42:18.397Z,85.60
2018-08-04T04:43:18.423Z,85.60
2018-08-04T04:44:18.450Z,85.98
2018-08-04T04:45:18.464Z,85.69
2018-08-04T04:46:18.488Z,85.88
2018-08-04T04:47:18.514Z,85.74
2018-08-04T04:48:18.539Z,85.69
2018-08-04T04:49:18.566Z,86.31
2018-08-04T04:50:18.593Z,85.60
2018-08-04T04:51:18.617Z,86.12
2018-08-04T04:52:18.633Z,86.12
2018-08-04T04:53:18.670Z,86.02
2018-08-04T04:54:18.687Z,85.93
2018-08-04T04:55:18.716Z,86.60
2018-08-04T04:56:18.735Z,86.31
2018-08-04T04:57:18.762Z,86.69
2018-08-04T04:58:18.778Z,86.60
2018-08-04T04:59:18.800Z,86.22
2018-08-04T05:00:18.840Z,85.93
2018-08-04T05:01:18.854Z,86.02
2018-08-04T05:02:18.878Z,86.12
2018-08-04T05:03:18.905Z,86.12
2018-08-04T05:04:18.930Z,85.83
2018-08-04T05:05:18.956Z,85.74
2018-08-04T05:06:18.970Z,86.12
2018-08-04T05:07:18.999Z,86.22
2018-08-04T05:08:19.022Z,86.12
2018-08-04T05:09:19.049Z,85.74
2018-08-04T05:10:19.077Z,85.74
2018-08-04T05:11:19.100Z,86.07
2018-08-04T05:12:19.114Z,86.26
2018-08-04T05:13:19.166Z,86.07
2018-08-04T05:14:19.165Z,85.97
2018-08-04T05:15:19.190Z,86.07
2018-08-04T05:16:19.216Z,86.16
2018-08-04T05:17:19.242Z,85.97
2018-08-04T05:18:19.268Z,85.97
2018-08-04T05:19:19.300Z,85.78
2018-08-04T05:20:19.321Z,85.97
2018-08-04T05:21:19.336Z,85.97
2018-08-04T05:22:19.361Z,86.16
2018-08-04T05:23:19.389Z,85.91
2018-08-04T05:24:19.412Z,85.58
2018-08-04T05:25:19.442Z,86.21
2018-08-04T05:26:19.464Z,86.01
2018-08-04T05:27:19.490Z,86.11
2018-08-04T05:28:19.516Z,85.72
2018-08-04T05:29:19.530Z,85.72
2018-08-04T05:30:19.568Z,85.63
2018-08-04T05:31:19.582Z,85.63
2018-08-04T05:32:19.607Z,85.63
2018-08-04T05:33:19.632Z,85.43
2018-08-04T05:34:19.671Z,85.24
2018-08-04T05:35:19.684Z,85.34
2018-08-04T05:36:19.710Z,85.47
2018-08-04T05:37:19.748Z,85.57
2018-08-04T05:38:19.762Z,85.57
2018-08-04T05:39:19.780Z,85.43
2018-08-04T05:40:19.802Z,85.28
2018-08-04T05:41:19.832Z,85.28
2018-08-04T05:42:19.859Z,85.77
2018-08-04T05:43:19.938Z,85.19
2018-08-04T05:44:19.907Z,85.67
2018-08-04T05:45:19.932Z,85.28
2018-08-04T05:46:19.958Z,85.28
2018-08-04T05:47:19.986Z,85.23
2018-08-04T05:48:20.010Z,84.84
2018-08-04T05:49:20.041Z,85.03
2018-08-04T05:50:20.062Z,84.84
2018-08-04T05:51:20.078Z,84.84
2018-08-04T05:52:20.101Z,84.94
2018-08-04T05:53:20.128Z,84.55
2018-08-04T05:54:20.152Z,84.27
2018-08-04T05:55:20.178Z,83.92
2018-08-04T05:56:20.219Z,83.53
2018-08-04T05:57:20.230Z,83.53
2018-08-04T05:58:20.256Z,83.25
2018-08-04T05:59:20.281Z,83.05
2018-08-04T06:00:20.321Z,83.05
2018-08-04T06:01:20.334Z,82.90
2018-08-04T06:02:20.362Z,82.96
2018-08-04T06:03:20.398Z,83.19
2018-08-04T06:04:20.411Z,83.09
2018-08-04T06:05:20.440Z,83.00
2018-08-04T06:06:20.463Z,83.29
2018-08-04T06:07:20.489Z,83.09
2018-08-04T06:08:20.516Z,83.09
2018-08-04T06:09:20.541Z,83.48
2018-08-04T06:10:20.568Z,83.33
2018-08-04T06:11:20.610Z,83.14
2018-08-04T06:12:20.624Z,82.36
2018-08-04T06:13:20.645Z,81.40
2018-08-04T06:14:20.671Z,81.40
2018-08-04T06:15:20.698Z,81.88
2018-08-04T06:16:20.723Z,81.24
2018-08-04T06:17:20.749Z,81.24
2018-08-04T06:18:20.776Z,81.15
2018-08-04T06:19:20.801Z,80.76
2018-08-04T06:20:20.849Z,81.15
2018-08-04T06:21:20.853Z,80.95
2018-08-04T06:22:20.879Z,81.19
2018-08-04T06:23:20.905Z,80.61
2018-08-04T06:24:20.931Z,80.71
2018-08-04T06:25:20.956Z,81.19
2018-08-04T06:26:20.996Z,80.61
2018-08-04T06:27:21.008Z,80.84
2018-08-04T06:28:21.069Z,80.84
2018-08-04T06:29:21.060Z,80.20
2018-08-04T06:30:21.086Z,79.62
2018-08-04T06:31:21.112Z,78.46
2018-08-04T06:32:21.148Z,78.27
2018-08-04T06:33:21.168Z,77.50
2018-08-04T06:34:21.202Z,77.34
2018-08-04T06:35:21.229Z,76.66
2018-08-04T06:36:21.254Z,75.73
2018-08-04T06:37:21.281Z,75.15
2018-08-04T06:38:21.307Z,75.67
2018-08-04T06:39:21.333Z,75.57
2018-08-04T06:40:21.363Z,75.42
2018-08-04T06:41:21.397Z,75.03
2018-08-04T06:42:21.423Z,74.77
2018-08-04T06:43:21.449Z,74.04
2018-08-04T06:44:21.474Z,71.90
2018-08-04T06:45:21.504Z,71.36
2018-08-04T06:46:21.540Z,70.42
2018-08-04T06:47:21.566Z,69.74
2018-08-04T06:48:21.592Z,69.48
2018-08-04T06:49:21.629Z,68.60
2018-08-04T06:50:21.655Z,67.96
2018-08-04T06:51:21.683Z,67.28
2018-08-04T06:52:21.724Z,67.02
2018-08-04T06:53:21.746Z,67.44
2018-08-04T06:54:21.787Z,67.63
2018-08-04T06:55:21.810Z,66.79
2018-08-04T06:56:21.835Z,65.43
2018-08-04T06:57:21.875Z,65.17
2018-08-04T06:58:21.914Z,64.52
2018-08-04T06:59:21.938Z,64.42
2018-08-04T07:00:21.964Z,64.45
2018-08-04T07:01:22.009Z,63.77
2018-08-04T07:02:22.030Z,63.31
2018-08-04T07:03:22.067Z,62.82
2018-08-04T07:04:22.093Z,61.30
2018-08-04T07:05:22.132Z,60.52
2018-08-04T07:06:22.157Z,59.86
2018-08-04T07:07:22.196Z,58.98
2018-08-04T07:08:22.223Z,59.11
2018-08-04T07:09:22.262Z,58.72
2018-08-04T07:10:22.300Z,58.45
2018-08-04T07:11:22.325Z,57.57
2018-08-04T07:12:22.364Z,57.70
2018-08-04T07:13:22.391Z,57.60
2018-08-04T07:14:22.427Z,57.11
2018-08-04T07:15:22.466Z,57.73
2018-08-04T07:16:22.493Z,58.31
2018-08-04T07:17:22.536Z,58.15
2018-08-04T07:18:22.570Z,57.76
2018-08-04T07:19:22.595Z,57.49
2018-08-04T07:20:22.635Z,57.00
2018-08-04T07:21:22.672Z,56.02
2018-08-04T07:22:22.699Z,55.43
2018-08-04T07:23:22.750Z,55.36
2018-08-04T07:24:22.781Z,55.46
2018-08-04T07:25:22.817Z,54.90
2018-08-04T07:26:22.841Z,54.41
2018-08-04T07:27:22.883Z,54.60
2018-08-04T07:28:22.916Z,54.60
2018-08-04T07:29:22.956Z,54.93
2018-08-04T07:30:22.994Z,53.85
2018-08-04T07:31:23.019Z,54.24
2018-08-04T07:32:23.062Z,54.44
2018-08-04T07:33:23.095Z,54.75
2018-08-04T07:34:23.204Z,55.35
2018-08-04T07:35:23.164Z,55.54
2018-08-04T07:36:23.198Z,54.19
2018-08-04T07:37:23.238Z,52.82
2018-08-04T07:38:23.275Z,53.31
2018-08-04T07:39:23.315Z,53.31
2018-08-04T07:40:23.386Z,53.21
2018-08-04T07:41:23.379Z,52.55
2018-08-04T07:42:23.418Z,52.65
2018-08-04T07:43:23.455Z,51.86
2018-08-04T07:44:23.495Z,52.08
2018-08-04T07:45:23.533Z,51.98
2018-08-04T07:46:23.571Z,52.18
2018-08-04T07:47:23.612Z,52.28
2018-08-04T07:48:23.648Z,52.21
2018-08-04T07:49:23.700Z,52.11
2018-08-04T07:50:23.740Z,50.93
2018-08-04T07:51:23.755Z,50.93
2018-08-04T07:52:23.795Z,51.12
2018-08-04T07:53:23.828Z,50.63
2018-08-04T07:54:23.866Z,51.15
2018-08-04T07:55:23.905Z,50.07
2018-08-04T07:56:23.942Z,49.58
2018-08-04T07:57:23.981Z,49.58
2018-08-04T07:58:24.020Z,49.77
2018-08-04T07:59:24.066Z,49.48
2018-08-04T08:00:24.097Z,48.99
2018-08-04T08:01:24.135Z,49.28
2018-08-04T08:02:24.173Z,50.46
2018-08-04T08:03:24.214Z,50.56
2018-08-04T08:04:24.251Z,50.37
2018-08-04T08:05:24.290Z,50.16
2018-08-04T08:06:24.326Z,50.07
2018-08-04T08:07:24.366Z,49.28
2018-08-04T08:08:24.403Z,49.58
2018-08-04T08:09:24.443Z,49.38
2018-08-04T08:10:24.521Z,49.48
2018-08-04T08:11:24.534Z,50.07
2018-08-04T08:12:24.557Z,50.66
2018-08-04T08:13:24.598Z,51.64
2018-08-04T08:14:24.647Z,51.74
2018-08-04T08:15:24.673Z,51.25
2018-08-04T08:16:24.711Z,51.18
2018-08-04T08:17:24.750Z,50.09
2018-08-04T08:18:24.787Z,49.80
2018-08-04T08:19:24.839Z,49.40
2018-08-04T08:20:24.885Z,49.30
2018-08-04T08:21:24.915Z,49.50
2018-08-04T08:22:24.955Z,50.09
2018-08-04T08:23:24.993Z,49.60
2018-08-04T08:24:25.032Z,49.60
2018-08-04T08:25:25.069Z,49.40
2018-08-04T08:26:25.109Z,49.11
2018-08-04T08:27:25.146Z,48.82
2018-08-04T08:28:25.185Z,48.82
2018-08-04T08:29:25.224Z,48.82
2018-08-04T08:30:25.263Z,48.82
2018-08-04T08:31:25.367Z,48.32
2018-08-04T08:32:25.339Z,48.79
2018-08-04T08:33:25.376Z,48.79
2018-08-04T08:34:25.421Z,49.18
2018-08-04T08:35:25.454Z,48.69
2018-08-04T08:36:25.493Z,48.67
2018-08-04T08:37:25.535Z,48.86
2018-08-04T08:38:25.563Z,48.96
2018-08-04T08:39:25.595Z,49.13
2018-08-04T08:40:25.636Z,49.13
2018-08-04T08:41:25.673Z,50.61
2018-08-04T08:42:25.723Z,51.57
2018-08-04T08:43:25.750Z,51.17
2018-08-04T08:44:25.776Z,50.19
2018-08-04T08:45:25.813Z,49.29
2018-08-04T08:46:25.852Z,49.48
2018-08-04T08:47:25.890Z,49.48
2018-08-04T08:48:25.929Z,49.97
2018-08-04T08:49:25.956Z,50.46
2018-08-04T08:50:25.993Z,51.52
2018-08-04T08:51:26.032Z,52.01
2018-08-04T08:52:26.060Z,52.20
2018-08-04T08:53:26.287Z,51.91
2018-08-04T08:54:26.135Z,50.63
2018-08-04T08:55:26.173Z,50.51
2018-08-04T08:56:26.199Z,50.71
2018-08-04T08:57:26.238Z,50.51
2018-08-04T08:58:26.276Z,50.29
2018-08-04T08:59:26.301Z,50.88
2018-08-04T09:00:26.340Z,50.88
2018-08-04T09:01:26.388Z,51.25
2018-08-04T09:02:26.404Z,51.17
2018-08-04T09:03:26.443Z,50.95
2018-08-04T09:04:26.482Z,51.15
2018-08-04T09:05:26.509Z,51.15
2018-08-04T09:06:26.548Z,51.25
2018-08-04T09:07:26.575Z,51.15
2018-08-04T09:08:26.610Z,51.64
2018-08-04T09:09:26.649Z,52.42
2018-08-04T09:10:26.674Z,53.30
2018-08-04T09:11:26.713Z,53.40
2018-08-04T09:12:26.752Z,54.28
2018-08-04T09:13:26.777Z,54.09
2018-08-04T09:14:26.816Z,54.28
2018-08-04T09:15:26.842Z,53.40
2018-08-04T09:16:26.881Z,53.01
2018-08-04T09:17:26.918Z,52.72
2018-08-04T09:18:26.957Z,52.23
2018-08-04T09:19:26.986Z,52.13
2018-08-04T09:20:27.022Z,51.83
2018-08-04T09:21:27.048Z,51.93
2018-08-04T09:22:27.087Z,51.15
2018-08-04T09:23:27.113Z,50.76
2018-08-04T09:24:27.151Z,50.76
2018-08-04T09:25:27.189Z,51.25
2018-08-04T09:26:27.216Z,51.54
2018-08-04T09:27:27.254Z,51.73
2018-08-04T09:28:27.292Z,52.03
2018-08-04T09:29:27.318Z,51.44
2018-08-04T09:30:27.355Z,51.25
2018-08-04T09:31:27.396Z,50.85
2018-08-04T09:32:27.421Z,50.49
2018-08-04T09:33:27.458Z,50.88
2018-08-04T09:34:27.497Z,51.96
2018-08-04T09:35:27.524Z,52.25
2018-08-04T09:36:27.561Z,51.76
2018-08-04T09:37:27.600Z,51.17
2018-08-04T09:38:27.627Z,50.88
2018-08-04T09:39:27.664Z,51.86
2018-08-04T09:40:27.703Z,52.25
2018-08-04T09:41:27.740Z,51.86
2018-08-04T09:42:27.768Z,51.66
2018-08-04T09:43:27.805Z,51.07
2018-08-04T09:44:27.843Z,51.49
2018-08-04T09:45:27.869Z,51.20
2018-08-04T09:46:27.909Z,51.20
2018-08-04T09:47:27.947Z,51.29
2018-08-04T09:48:27.985Z,49.53
2018-08-04T09:49:28.037Z,49.16
2018-08-04T09:50:28.049Z,49.04
2018-08-04T09:51:28.090Z,47.69
2018-08-04T09:52:28.163Z,48.38
2018-08-04T09:53:28.166Z,48.67
2018-08-04T09:54:28.203Z,49.46
2018-08-04T09:55:28.241Z,49.16
2018-08-04T09:56:28.279Z,47.99
2018-08-04T09:57:28.305Z,48.28
2018-08-04T09:58:28.346Z,47.49
2018-08-04T09:59:28.437Z,48.40
2018-08-04T10:00:28.422Z,49.08
2018-08-04T10:01:28.459Z,50.07
2018-08-04T10:02:28.499Z,50.68
2018-08-04T10:03:28.538Z,49.21
2018-08-04T10:04:28.575Z,47.15
2018-08-04T10:05:28.613Z,47.93
2018-08-04T10:06:28.652Z,48.05
2018-08-04T10:07:28.692Z,48.86
2018-08-04T10:08:28.729Z,47.69
2018-08-04T10:09:28.768Z,47.19
2018-08-04T10:10:28.805Z,47.29
2018-08-04T10:11:28.853Z,48.00
2018-08-04T10:12:28.884Z,48.91
2018-08-04T10:13:28.921Z,47.63
2018-08-04T10:14:28.960Z,47.06
2018-08-04T10:15:29.001Z,46.28
2018-08-04T10:16:29.041Z,46.47
2018-08-04T10:17:29.075Z,46.69
2018-08-04T10:18:29.113Z,44.72
2018-08-04T10:19:29.152Z,44.45
2018-08-04T10:20:29.192Z,44.25
2018-08-04T10:21:29.230Z,44.55
2018-08-04T10:22:29.279Z,44.47
2018-08-04T10:23:29.319Z,44.37
2018-08-04T10:24:29.356Z,44.81
2018-08-04T10:25:29.395Z,44.91
2018-08-04T10:26:29.434Z,43.96
2018-08-04T10:27:29.485Z,44.75
2018-08-04T10:28:29.525Z,45.37
2018-08-04T10:29:29.561Z,46.06
2018-08-04T10:30:29.601Z,45.61
2018-08-04T10:31:29.655Z,44.94
2018-08-04T10:32:29.743Z,44.45
2018-08-04T10:33:29.729Z,43.18
2018-08-04T10:34:29.779Z,42.68
2018-08-04T10:35:29.826Z,42.68
2018-08-04T10:36:29.856Z,42.50
2018-08-04T10:37:29.906Z,43.32
2018-08-04T10:38:29.946Z,43.02
2018-08-04T10:39:29.995Z,42.23
2018-08-04T10:40:30.035Z,41.73
2018-08-04T10:41:30.072Z,41.44
2018-08-04T10:42:30.112Z,41.73
2018-08-04T10:43:30.162Z,41.36
2018-08-04T10:44:30.200Z,40.66
2018-08-04T10:45:30.239Z,40.66
2018-08-04T10:46:30.289Z,40.19
2018-08-04T10:47:30.328Z,39.29
2018-08-04T10:48:30.368Z,39.19
2018-08-04T10:49:30.435Z,39.89
2018-08-04T10:50:30.456Z,39.81
2018-08-04T10:51:30.495Z,39.31
2018-08-04T10:52:30.546Z,39.09
2018-08-04T10:53:30.585Z,39.09
2018-08-04T10:54:30.623Z,39.31
2018-08-04T10:55:30.674Z,39.21
2018-08-04T10:56:30.711Z,39.23
2018-08-04T10:57:30.750Z,39.33
2018-08-04T10:58:30.801Z,38.64
2018-08-04T10:59:30.839Z,37.94
2018-08-04T11:00:30.878Z,38.14
2018-08-04T11:01:30.929Z,38.45
2018-08-04T11:02:30.971Z,38.73
2018-08-04T11:03:31.006Z,39.23
2018-08-04T11:04:31.058Z,39.13
2018-08-04T11:05:31.095Z,39.11
2018-08-04T11:06:31.135Z,39.01
2018-08-04T11:07:31.185Z,38.88
2018-08-04T11:08:31.223Z,39.67
2018-08-04T11:09:31.262Z,39.15
2018-08-04T11:10:31.312Z,39.45
2018-08-04T11:11:31.338Z,40.12
2018-08-04T11:12:31.407Z,40.03
2018-08-04T11:13:31.427Z,40.70
2018-08-04T11:14:31.466Z,41.10
2018-08-04T11:15:31.504Z,40.70
2018-08-04T11:16:31.543Z,40.60
2018-08-04T11:17:31.580Z,40.60
2018-08-04T11:18:31.620Z,40.78
2018-08-04T11:19:31.659Z,40.58
2018-08-04T11:20:31.710Z,41.08
2018-08-04T11:21:31.748Z,40.47
2018-08-04T11:22:31.799Z,43.63
2018-08-04T11:23:31.828Z,44.50
2018-08-04T11:24:31.863Z,44.50
2018-08-04T11:25:31.903Z,43.80
2018-08-04T11:26:31.940Z,45.09
2018-08-04T11:27:31.979Z,44.80
2018-08-04T11:28:32.017Z,42.52
2018-08-04T11:29:32.056Z,42.35
2018-08-04T11:30:32.094Z,41.36
2018-08-04T11:31:32.132Z,40.86
2018-08-04T11:32:32.171Z,40.98
2018-08-04T11:33:32.208Z,41.18
2018-08-04T11:34:32.247Z,40.78
2018-08-04T11:35:32.286Z,40.70
2018-08-04T11:36:32.337Z,40.11
2018-08-04T11:37:32.387Z,40.03
2018-08-04T11:38:32.414Z,39.63
2018-08-04T11:39:32.451Z,40.03
2018-08-04T11:40:32.491Z,40.80
2018-08-04T11:41:32.528Z,41.20
2018-08-04T11:42:32.567Z,41.79
2018-08-04T11:43:32.605Z,41.30
2018-08-04T11:44:32.650Z,41.79
2018-08-04T11:45:32.750Z,42.36
2018-08-04T11:46:32.722Z,44.82
2018-08-04T11:47:32.762Z,44.62
2018-08-04T11:48:32.798Z,43.91
2018-08-04T11:49:32.840Z,44.01
2018-08-04T11:50:32.875Z,44.31
2018-08-04T11:51:32.970Z,44.18
2018-08-04T11:52:32.952Z,45.07
2018-08-04T11:53:32.990Z,46.16
2018-08-04T11:54:33.035Z,46.26
2018-08-04T11:55:33.066Z,46.06
2018-08-04T11:56:33.105Z,46.04
2018-08-04T11:57:33.143Z,45.05
2018-08-04T11:58:33.182Z,44.65
2018-08-04T11:59:33.233Z,44.36
2018-08-04T12:00:33.261Z,44.26
2018-08-04T12:01:33.297Z,42.78
2018-08-04T12:02:33.336Z,42.85
2018-08-04T12:03:33.363Z,43.94
2018-08-04T12:04:33.402Z,45.62
2018-08-04T12:05:33.481Z,45.03
2018-08-04T12:06:33.476Z,44.83
2018-08-04T12:07:33.518Z,44.43
2018-08-04T12:08:33.554Z,45.62
2018-08-04T12:09:33.593Z,46.81
2018-08-04T12:10:33.621Z,46.51
2018-08-04T12:11:33.656Z,46.61
2018-08-04T12:12:33.695Z,47.10
2018-08-04T12:13:33.735Z,46.81
2018-08-04T12:14:33.772Z,47.10
2018-08-04T12:15:33.819Z,46.53
2018-08-04T12:16:33.855Z,45.15
2018-08-04T12:17:33.886Z,45.64
2018-08-04T12:18:33.926Z,43.88
2018-08-04T12:19:33.976Z,43.19
2018-08-04T12:20:34.005Z,42.70
2018-08-04T12:21:34.028Z,42.22
2018-08-04T12:22:34.072Z,41.63
2018-08-04T12:23:34.117Z,41.53
2018-08-04T12:24:34.145Z,41.83
2018-08-04T12:25:34.214Z,43.12
2018-08-04T12:26:34.220Z,42.52
2018-08-04T12:27:34.260Z,41.83
2018-08-04T12:28:34.310Z,41.93
2018-08-04T12:29:34.338Z,41.63
2018-08-04T12:30:34.373Z,41.04
2018-08-04T12:31:34.517Z,41.16
2018-08-04T12:32:34.450Z,41.46
2018-08-04T12:33:34.489Z,41.36
2018-08-04T12:34:34.527Z,40.86
2018-08-04T12:35:34.567Z,41.18
2018-08-04T12:36:34.604Z,40.90
2018-08-04T12:37:34.649Z,40.80
2018-08-04T12:38:34.681Z,41.30
2018-08-04T12:39:34.721Z,41.02
2018-08-04T12:40:34.759Z,40.80
2018-08-04T12:41:34.808Z,40.50
2018-08-04T12:42:34.848Z,40.80
2018-08-04T12:43:34.899Z,41.10
2018-08-04T12:44:34.925Z,40.80
2018-08-04T12:45:34.996Z,40.82
2018-08-04T12:46:35.001Z,40.63
2018-08-04T12:47:35.040Z,41.22
2018-08-04T12:48:35.079Z,40.72
2018-08-04T12:49:35.116Z,41.22
2018-08-04T12:50:35.155Z,41.22
2018-08-04T12:51:35.193Z,41.41
2018-08-04T12:52:35.232Z,42.50